KFWC

Fairfield Municipal Airport

Fairfield, Illinois, USA
METAR KFWC 241435Z AUTO 00000KT 10SM CLR 26/21 A2995 RMK AO1 T02600206
Observed Flight Rules
Jun-24 @ 14:35 UTC (31 minutes ago) Visual Flight Rules
Visibility Clouds
10 miles
  • Clear skies
Temperatures Readings
Current 26°C / 79°F
Dewpoint 21°C / 70°F
Humidity 74%
Altimeter 29.95" Hg
Pressure 1014 hPa
Elevation 133
METAR KFWC 241435Z AUTO 00000KT 10SM CLR 26/21 A2995 RMK AO1 T02600206
Observed Flight Rules
Jun-24 @ 14:35 UTC
(31 minutes ago)
VFR
Clouds
  • Clear skies
Temperature Dewpoint
26°C / 79°F 21°C / 70°F
Humidity Altimeter Pressure
74% 29.95" Hg 1014 hPa